QFA123 YMML-YSSY
Flight info
| Callsign | QFA123 |
|---|---|
| Flight time | 1h 22m |
| Altitude | 37000 |
| Route | DOSEL2/27 DOSEL Y59 RIVET |
| Aircraft | A20N/M-SDE2E3FGHIRWXY/LB1 |
Departure
| Time | 2026-05-05 13:39 |
|---|---|
| Airport | Melbourne Airport (YMML) |
Arrival
| Time | 2026-05-05 15:02 |
|---|---|
| Airport | Sydney Kingsford Smith International Airport (YSSY) |
| Time | Latitude | Longitude | Altitude | Speed | Heading |
|---|---|---|---|---|---|
| 2026-05-05 13:25 | -37.66651 | 144.84988 | 441 ft | 0 kts | 262° |
| 2026-05-05 13:33 | -37.66651 | 144.84993 | 442 ft | 2 kts | 262° |
| 2026-05-05 13:33 | -37.66652 | 144.85011 | 442 ft | 2 kts | 292° |
| 2026-05-05 13:33 | -37.66660 | 144.85027 | 442 ft | 2 kts | 316° |
| 2026-05-05 13:33 | -37.66672 | 144.85037 | 441 ft | 2 kts | 341° |
| 2026-05-05 13:34 | -37.66680 | 144.85040 | 442 ft | 1 kts | 355° |
| 2026-05-05 13:34 | -37.66684 | 144.85040 | 442 ft | 0 kts | 351° |
| 2026-05-05 13:36 | -37.66679 | 144.85040 | 441 ft | 1 kts | 1° |
| 2026-05-05 13:36 | -37.66661 | 144.85053 | 441 ft | 4 kts | 34° |
| 2026-05-05 13:37 | -37.66626 | 144.85068 | 442 ft | 7 kts | 358° |
| 2026-05-05 13:37 | -37.66559 | 144.85057 | 442 ft | 11 kts | 353° |
| 2026-05-05 13:37 | -37.66465 | 144.85028 | 441 ft | 15 kts | 327° |
| 2026-05-05 13:37 | -37.66375 | 144.84938 | 441 ft | 16 kts | 321° |
| 2026-05-05 13:38 | -37.66284 | 144.84847 | 441 ft | 15 kts | 320° |
| 2026-05-05 13:38 | -37.66222 | 144.84747 | 441 ft | 14 kts | 277° |
| 2026-05-05 13:38 | -37.66217 | 144.84671 | 442 ft | 5 kts | 274° |
| 2026-05-05 13:38 | -37.66204 | 144.84436 | 442 ft | 61 kts | 274° |
| 2026-05-05 13:39 | -37.66156 | 144.83595 | 442 ft | 126 kts | 274° |
| 2026-05-05 13:39 | -37.66081 | 144.82288 | 555 ft | 164 kts | 274° |
| 2026-05-05 13:39 | -37.66008 | 144.80870 | 1159 ft | 163 kts | 274° |
| 2026-05-05 13:39 | -37.65922 | 144.79451 | 1806 ft | 166 kts | 274° |
| 2026-05-05 13:40 | -37.65835 | 144.78000 | 2426 ft | 170 kts | 274° |
| 2026-05-05 13:40 | -37.65744 | 144.76468 | 2813 ft | 185 kts | 274° |
| 2026-05-05 13:40 | -37.65644 | 144.74779 | 3203 ft | 202 kts | 275° |
| 2026-05-05 13:40 | -37.65533 | 144.72903 | 3514 ft | 226 kts | 274° |
| 2026-05-05 13:41 | -37.65412 | 144.70851 | 3972 ft | 244 kts | 274° |
| 2026-05-05 13:41 | -37.65280 | 144.68649 | 4522 ft | 257 kts | 276° |
| 2026-05-05 13:41 | -37.64768 | 144.66515 | 4880 ft | 259 kts | 303° |
| 2026-05-05 13:41 | -37.63499 | 144.64940 | 4960 ft | 261 kts | 329° |
| 2026-05-05 13:42 | -37.61755 | 144.64267 | 5011 ft | 268 kts | 357° |
| 2026-05-05 13:42 | -37.59921 | 144.64760 | 5614 ft | 279 kts | 26° |
| 2026-05-05 13:42 | -37.58460 | 144.66324 | 6634 ft | 279 kts | 51° |
| 2026-05-05 13:42 | -37.57332 | 144.68300 | 7503 ft | 281 kts | 53° |
| 2026-05-05 13:43 | -37.56204 | 144.70312 | 8299 ft | 286 kts | 53° |
| 2026-05-05 13:43 | -37.55053 | 144.72360 | 9077 ft | 291 kts | 53° |
| 2026-05-05 13:43 | -37.53869 | 144.74458 | 9856 ft | 295 kts | 53° |
| 2026-05-05 13:43 | -37.52681 | 144.76553 | 10544 ft | 302 kts | 53° |
| 2026-05-05 13:44 | -37.51414 | 144.78780 | 10981 ft | 320 kts | 53° |
| 2026-05-05 13:44 | -37.50085 | 144.81113 | 11389 ft | 336 kts | 53° |
| 2026-05-05 13:44 | -37.48721 | 144.83505 | 12028 ft | 342 kts | 53° |
| 2026-05-05 13:44 | -37.47342 | 144.85927 | 12762 ft | 345 kts | 53° |
| 2026-05-05 13:45 | -37.45934 | 144.88393 | 13470 ft | 349 kts | 53° |
| 2026-05-05 13:45 | -37.44512 | 144.90878 | 14193 ft | 353 kts | 53° |
| 2026-05-05 13:45 | -37.43076 | 144.93391 | 14916 ft | 355 kts | 53° |
| 2026-05-05 13:45 | -37.41646 | 144.95892 | 15628 ft | 357 kts | 53° |
| 2026-05-05 13:46 | -37.40199 | 144.98424 | 16325 ft | 359 kts | 53° |
| 2026-05-05 13:46 | -37.38726 | 145.00995 | 17027 ft | 361 kts | 53° |
| 2026-05-05 13:46 | -37.37262 | 145.03548 | 17703 ft | 363 kts | 53° |
| 2026-05-05 13:46 | -37.35788 | 145.06116 | 18352 ft | 365 kts | 53° |
| 2026-05-05 13:47 | -37.34316 | 145.08676 | 18974 ft | 368 kts | 53° |
| 2026-05-05 13:47 | -37.32798 | 145.11314 | 19587 ft | 370 kts | 53° |
| 2026-05-05 13:47 | -37.31298 | 145.13919 | 20149 ft | 374 kts | 53° |
| 2026-05-05 13:47 | -37.29777 | 145.16557 | 20700 ft | 377 kts | 53° |
| 2026-05-05 13:48 | -37.28238 | 145.19228 | 21258 ft | 380 kts | 53° |
| 2026-05-05 13:48 | -37.26682 | 145.21921 | 21809 ft | 383 kts | 53° |
| 2026-05-05 13:48 | -37.25113 | 145.24638 | 22348 ft | 386 kts | 53° |
| 2026-05-05 13:48 | -37.23531 | 145.27376 | 22874 ft | 389 kts | 53° |
| 2026-05-05 13:49 | -37.21938 | 145.30129 | 23388 ft | 391 kts | 53° |
| 2026-05-05 13:49 | -37.20351 | 145.32867 | 23882 ft | 394 kts | 53° |
| 2026-05-05 13:49 | -37.18731 | 145.35664 | 24365 ft | 397 kts | 53° |
| 2026-05-05 13:49 | -37.17109 | 145.38460 | 24817 ft | 400 kts | 53° |
| 2026-05-05 13:50 | -37.15472 | 145.41295 | 25264 ft | 404 kts | 54° |
| 2026-05-05 13:50 | -37.13832 | 145.44157 | 25702 ft | 407 kts | 54° |
| 2026-05-05 13:50 | -37.12177 | 145.47051 | 26125 ft | 410 kts | 54° |
| 2026-05-05 13:50 | -37.10513 | 145.49957 | 26539 ft | 413 kts | 54° |
| 2026-05-05 13:51 | -37.08841 | 145.52872 | 26950 ft | 416 kts | 54° |
| 2026-05-05 13:51 | -37.07155 | 145.55811 | 27346 ft | 419 kts | 54° |
| 2026-05-05 13:51 | -37.05455 | 145.58766 | 27723 ft | 422 kts | 54° |
| 2026-05-05 13:51 | -37.03739 | 145.61746 | 28094 ft | 424 kts | 54° |
| 2026-05-05 13:52 | -37.01996 | 145.64774 | 28472 ft | 427 kts | 53° |
| 2026-05-05 13:52 | -37.00263 | 145.67778 | 28827 ft | 430 kts | 53° |
| 2026-05-05 13:52 | -36.97915 | 145.71846 | 29282 ft | 433 kts | 53° |
| 2026-05-05 13:52 | -36.96756 | 145.73851 | 29497 ft | 435 kts | 53° |
| 2026-05-05 13:53 | -36.94983 | 145.76916 | 29835 ft | 438 kts | 53° |
| 2026-05-05 13:53 | -36.93184 | 145.80023 | 30281 ft | 437 kts | 53° |
| 2026-05-05 13:53 | -36.91409 | 145.83089 | 30769 ft | 435 kts | 53° |
| 2026-05-05 13:53 | -36.89641 | 145.86140 | 31216 ft | 434 kts | 53° |
| 2026-05-05 13:54 | -36.87890 | 145.89159 | 31616 ft | 434 kts | 53° |
| 2026-05-05 13:54 | -36.86119 | 145.92207 | 32009 ft | 434 kts | 53° |
| 2026-05-05 13:54 | -36.84362 | 145.95233 | 32384 ft | 433 kts | 52° |
| 2026-05-05 13:54 | -36.82598 | 145.98267 | 32738 ft | 433 kts | 52° |
| 2026-05-05 13:55 | -36.80814 | 146.01331 | 33088 ft | 433 kts | 52° |
| 2026-05-05 13:55 | -36.79054 | 146.04350 | 33435 ft | 433 kts | 52° |
| 2026-05-05 13:55 | -36.77298 | 146.07359 | 33749 ft | 432 kts | 52° |
| 2026-05-05 13:55 | -36.75539 | 146.10371 | 34047 ft | 432 kts | 52° |
| 2026-05-05 13:56 | -36.73773 | 146.13394 | 34339 ft | 433 kts | 52° |
| 2026-05-05 13:56 | -36.72002 | 146.16422 | 34596 ft | 433 kts | 52° |
| 2026-05-05 13:56 | -36.70219 | 146.19466 | 34808 ft | 433 kts | 52° |
| 2026-05-05 13:56 | -36.68451 | 146.22482 | 35006 ft | 433 kts | 52° |
| 2026-05-05 13:57 | -36.66684 | 146.25493 | 35223 ft | 433 kts | 52° |
| 2026-05-05 13:57 | -36.64892 | 146.28546 | 35430 ft | 434 kts | 52° |
| 2026-05-05 13:57 | -36.63122 | 146.31557 | 35584 ft | 435 kts | 52° |
| 2026-05-05 13:57 | -36.61337 | 146.34592 | 35727 ft | 436 kts | 52° |
| 2026-05-05 13:58 | -36.59551 | 146.37624 | 35879 ft | 438 kts | 52° |
| 2026-05-05 13:58 | -36.57760 | 146.40660 | 36036 ft | 438 kts | 52° |
| 2026-05-05 13:58 | -36.55947 | 146.43736 | 36192 ft | 439 kts | 51° |
| 2026-05-05 13:58 | -36.54156 | 146.46770 | 36329 ft | 440 kts | 51° |
| 2026-05-05 13:59 | -36.50514 | 146.52931 | 36685 ft | 442 kts | 51° |
| 2026-05-05 13:59 | -36.48692 | 146.56006 | 36843 ft | 443 kts | 51° |
| 2026-05-05 14:00 | -36.45052 | 146.62148 | 37119 ft | 445 kts | 51° |
| 2026-05-05 14:00 | -36.43215 | 146.65242 | 37212 ft | 447 kts | 51° |
| 2026-05-05 14:00 | -36.39517 | 146.71463 | 37219 ft | 447 kts | 50° |
| 2026-05-05 14:01 | -36.35828 | 146.77657 | 37193 ft | 447 kts | 50° |
| 2026-05-05 14:01 | -36.32151 | 146.83820 | 37213 ft | 448 kts | 50° |
| 2026-05-05 14:02 | -36.28450 | 146.90012 | 37213 ft | 448 kts | 50° |
| 2026-05-05 14:02 | -36.24741 | 146.96207 | 37208 ft | 448 kts | 50° |
| 2026-05-05 14:03 | -36.21044 | 147.02368 | 37206 ft | 448 kts | 50° |
| 2026-05-05 14:03 | -36.17315 | 147.08571 | 37217 ft | 448 kts | 50° |
| 2026-05-05 14:04 | -36.13621 | 147.14712 | 37217 ft | 448 kts | 50° |
| 2026-05-05 14:04 | -36.09894 | 147.20894 | 37207 ft | 448 kts | 50° |
| 2026-05-05 14:05 | -36.06171 | 147.27055 | 37206 ft | 448 kts | 50° |
| 2026-05-05 14:05 | -36.02465 | 147.33177 | 37211 ft | 448 kts | 50° |
| 2026-05-05 14:06 | -35.98744 | 147.39313 | 37207 ft | 448 kts | 50° |
| 2026-05-05 14:06 | -35.94990 | 147.45493 | 37198 ft | 448 kts | 50° |
| 2026-05-05 14:07 | -35.91279 | 147.51590 | 37207 ft | 448 kts | 50° |
| 2026-05-05 14:07 | -35.87516 | 147.57761 | 37193 ft | 448 kts | 50° |
| 2026-05-05 14:08 | -35.83782 | 147.63873 | 37199 ft | 448 kts | 50° |
| 2026-05-05 14:08 | -35.80044 | 147.69984 | 37207 ft | 448 kts | 50° |
| 2026-05-05 14:09 | -35.76300 | 147.76099 | 37198 ft | 448 kts | 50° |
| 2026-05-05 14:09 | -35.72564 | 147.82182 | 37196 ft | 448 kts | 50° |
| 2026-05-05 14:10 | -35.68800 | 147.88301 | 37195 ft | 448 kts | 49° |
| 2026-05-05 14:10 | -35.65043 | 147.94398 | 37207 ft | 448 kts | 49° |
| 2026-05-05 14:11 | -35.61288 | 148.00481 | 37201 ft | 448 kts | 50° |
| 2026-05-05 14:11 | -35.57522 | 148.06572 | 37191 ft | 449 kts | 49° |
| 2026-05-05 14:12 | -35.53752 | 148.12657 | 37199 ft | 450 kts | 49° |
| 2026-05-05 14:12 | -35.49982 | 148.18733 | 37202 ft | 450 kts | 49° |
| 2026-05-05 14:13 | -35.46181 | 148.24844 | 37203 ft | 450 kts | 49° |
| 2026-05-05 14:13 | -35.42407 | 148.30905 | 37194 ft | 450 kts | 49° |
| 2026-05-05 14:14 | -35.38599 | 148.37015 | 37197 ft | 450 kts | 49° |
| 2026-05-05 14:14 | -35.34811 | 148.43077 | 37196 ft | 451 kts | 49° |
| 2026-05-05 14:15 | -35.31009 | 148.49152 | 37197 ft | 451 kts | 49° |
| 2026-05-05 14:15 | -35.27174 | 148.55269 | 37197 ft | 451 kts | 49° |
| 2026-05-05 14:16 | -35.23379 | 148.61311 | 37195 ft | 452 kts | 49° |
| 2026-05-05 14:16 | -35.19560 | 148.67378 | 37185 ft | 452 kts | 48° |
| 2026-05-05 14:17 | -35.15732 | 148.73453 | 37193 ft | 452 kts | 48° |
| 2026-05-05 14:17 | -35.11887 | 148.79541 | 37185 ft | 452 kts | 48° |
| 2026-05-05 14:18 | -35.08064 | 148.85586 | 37188 ft | 453 kts | 48° |
| 2026-05-05 14:18 | -35.04213 | 148.91661 | 37192 ft | 453 kts | 48° |
| 2026-05-05 14:19 | -35.00355 | 148.97740 | 37193 ft | 453 kts | 48° |
| 2026-05-05 14:19 | -34.98423 | 149.00780 | 37067 ft | 454 kts | 48° |
| 2026-05-05 14:19 | -34.96511 | 149.03784 | 36824 ft | 452 kts | 48° |
| 2026-05-05 14:20 | -34.94583 | 149.06815 | 36580 ft | 449 kts | 48° |
| 2026-05-05 14:20 | -34.92685 | 149.09792 | 36338 ft | 446 kts | 48° |
| 2026-05-05 14:20 | -34.90809 | 149.12733 | 36058 ft | 443 kts | 48° |
| 2026-05-05 14:20 | -34.88916 | 149.15698 | 35641 ft | 443 kts | 48° |
| 2026-05-05 14:21 | -34.87035 | 149.18639 | 35098 ft | 445 kts | 48° |
| 2026-05-05 14:21 | -34.85109 | 149.21646 | 34511 ft | 448 kts | 49° |
| 2026-05-05 14:21 | -34.83218 | 149.24597 | 33897 ft | 451 kts | 49° |
| 2026-05-05 14:21 | -34.81287 | 149.27612 | 33178 ft | 453 kts | 49° |
| 2026-05-05 14:22 | -34.79348 | 149.30640 | 32505 ft | 455 kts | 49° |
| 2026-05-05 14:22 | -34.77416 | 149.33650 | 31827 ft | 456 kts | 49° |
| 2026-05-05 14:22 | -34.75502 | 149.36720 | 31131 ft | 458 kts | 52° |
| 2026-05-05 14:22 | -34.73712 | 149.39952 | 30429 ft | 461 kts | 55° |
| 2026-05-05 14:23 | -34.72099 | 149.43291 | 29724 ft | 463 kts | 59° |
| 2026-05-05 14:23 | -34.70583 | 149.46747 | 29138 ft | 460 kts | 60° |
| 2026-05-05 14:23 | -34.69120 | 149.50128 | 28697 ft | 454 kts | 60° |
| 2026-05-05 14:23 | -34.67659 | 149.53503 | 28231 ft | 449 kts | 60° |
| 2026-05-05 14:24 | -34.66215 | 149.56824 | 27775 ft | 444 kts | 60° |
| 2026-05-05 14:24 | -34.64790 | 149.60094 | 27309 ft | 439 kts | 60° |
| 2026-05-05 14:24 | -34.63369 | 149.63347 | 26845 ft | 435 kts | 60° |
| 2026-05-05 14:24 | -34.61960 | 149.66563 | 26395 ft | 431 kts | 60° |
| 2026-05-05 14:25 | -34.60558 | 149.69762 | 25940 ft | 427 kts | 60° |
| 2026-05-05 14:25 | -34.59179 | 149.72900 | 25489 ft | 423 kts | 60° |
| 2026-05-05 14:25 | -34.57788 | 149.76067 | 25030 ft | 420 kts | 60° |
| 2026-05-05 14:25 | -34.56423 | 149.79175 | 24581 ft | 417 kts | 60° |
| 2026-05-05 14:26 | -34.55073 | 149.82240 | 24127 ft | 414 kts | 60° |
| 2026-05-05 14:26 | -34.53725 | 149.85297 | 23670 ft | 411 kts | 60° |
| 2026-05-05 14:26 | -34.52391 | 149.88324 | 23224 ft | 408 kts | 60° |
| 2026-05-05 14:26 | -34.51063 | 149.91332 | 22769 ft | 406 kts | 60° |
| 2026-05-05 14:27 | -34.49728 | 149.94354 | 22323 ft | 403 kts | 60° |
| 2026-05-05 14:27 | -34.48407 | 149.97347 | 21871 ft | 401 kts | 60° |
| 2026-05-05 14:27 | -34.47114 | 150.00273 | 21426 ft | 399 kts | 60° |
| 2026-05-05 14:27 | -34.45811 | 150.03215 | 20955 ft | 396 kts | 60° |
| 2026-05-05 14:28 | -34.44515 | 150.06142 | 20517 ft | 393 kts | 60° |
| 2026-05-05 14:28 | -34.43227 | 150.09044 | 20067 ft | 391 kts | 60° |
| 2026-05-05 14:28 | -34.41951 | 150.11917 | 19615 ft | 388 kts | 60° |
| 2026-05-05 14:28 | -34.40666 | 150.14807 | 19169 ft | 386 kts | 60° |
| 2026-05-05 14:29 | -34.39408 | 150.17635 | 18721 ft | 383 kts | 61° |
| 2026-05-05 14:29 | -34.38143 | 150.20479 | 18276 ft | 380 kts | 61° |
| 2026-05-05 14:29 | -34.36898 | 150.23271 | 17840 ft | 378 kts | 61° |
| 2026-05-05 14:29 | -34.35671 | 150.26024 | 17396 ft | 375 kts | 61° |
| 2026-05-05 14:30 | -34.34439 | 150.28783 | 16957 ft | 372 kts | 61° |
| 2026-05-05 14:30 | -34.33206 | 150.31545 | 16520 ft | 370 kts | 61° |
| 2026-05-05 14:30 | -34.32002 | 150.34238 | 16096 ft | 367 kts | 61° |
| 2026-05-05 14:30 | -34.30787 | 150.36952 | 15644 ft | 364 kts | 61° |
| 2026-05-05 14:31 | -34.29592 | 150.39619 | 15217 ft | 362 kts | 61° |
| 2026-05-05 14:31 | -34.28392 | 150.42297 | 14784 ft | 359 kts | 61° |
| 2026-05-05 14:31 | -34.27220 | 150.44917 | 14359 ft | 356 kts | 62° |
| 2026-05-05 14:31 | -34.26037 | 150.47569 | 13934 ft | 354 kts | 62° |
| 2026-05-05 14:32 | -34.24881 | 150.50156 | 13505 ft | 351 kts | 62° |
| 2026-05-05 14:32 | -34.23726 | 150.52739 | 13077 ft | 349 kts | 62° |
| 2026-05-05 14:32 | -34.22573 | 150.55315 | 12641 ft | 347 kts | 62° |
| 2026-05-05 14:32 | -34.21436 | 150.57851 | 12219 ft | 345 kts | 62° |
| 2026-05-05 14:33 | -34.20299 | 150.60385 | 11793 ft | 342 kts | 62° |
| 2026-05-05 14:33 | -34.19173 | 150.62894 | 11375 ft | 340 kts | 62° |
| 2026-05-05 14:33 | -34.18049 | 150.65396 | 10950 ft | 338 kts | 61° |
| 2026-05-05 14:33 | -34.16940 | 150.67864 | 10637 ft | 331 kts | 61° |
| 2026-05-05 14:34 | -34.15863 | 150.70259 | 10344 ft | 324 kts | 61° |
| 2026-05-05 14:34 | -34.14805 | 150.72609 | 10146 ft | 314 kts | 61° |
| 2026-05-05 14:34 | -34.13781 | 150.74881 | 10041 ft | 301 kts | 61° |
| 2026-05-05 14:34 | -34.12800 | 150.77057 | 9836 ft | 293 kts | 61° |
| 2026-05-05 14:35 | -34.11836 | 150.79193 | 9482 ft | 291 kts | 61° |
| 2026-05-05 14:35 | -34.10858 | 150.81355 | 8823 ft | 301 kts | 61° |
| 2026-05-05 14:35 | -34.09856 | 150.83578 | 8462 ft | 298 kts | 61° |
| 2026-05-05 14:35 | -34.08884 | 150.85739 | 8186 ft | 292 kts | 61° |
| 2026-05-05 14:36 | -34.07923 | 150.87875 | 8009 ft | 282 kts | 61° |
| 2026-05-05 14:36 | -34.06988 | 150.89952 | 7988 ft | 280 kts | 61° |
| 2026-05-05 14:36 | -34.06065 | 150.92001 | 7994 ft | 280 kts | 61° |
| 2026-05-05 14:36 | -34.05133 | 150.94069 | 7982 ft | 281 kts | 61° |
| 2026-05-05 14:37 | -34.04200 | 150.96138 | 7972 ft | 281 kts | 61° |
| 2026-05-05 14:37 | -34.03271 | 150.98195 | 7922 ft | 282 kts | 61° |
| 2026-05-05 14:37 | -34.02333 | 151.00273 | 7550 ft | 283 kts | 61° |
| 2026-05-05 14:37 | -34.01410 | 151.02344 | 7198 ft | 281 kts | 62° |
| 2026-05-05 14:38 | -34.00497 | 151.04414 | 6855 ft | 278 kts | 62° |
| 2026-05-05 14:38 | -33.99593 | 151.06465 | 6522 ft | 276 kts | 62° |
| 2026-05-05 14:38 | -33.98697 | 151.08493 | 6187 ft | 273 kts | 62° |
| 2026-05-05 14:38 | -33.97804 | 151.10512 | 5851 ft | 270 kts | 62° |
| 2026-05-05 14:39 | -33.96925 | 151.12494 | 5538 ft | 267 kts | 62° |
| 2026-05-05 14:39 | -33.96054 | 151.14461 | 5219 ft | 266 kts | 63° |
| 2026-05-05 14:39 | -33.95095 | 151.16360 | 4869 ft | 265 kts | 48° |
| 2026-05-05 14:39 | -33.93555 | 151.17519 | 4521 ft | 265 kts | 15° |
| 2026-05-05 14:40 | -33.91720 | 151.17569 | 4172 ft | 267 kts | 348° |
| 2026-05-05 14:40 | -33.90050 | 151.16600 | 3792 ft | 269 kts | 319° |
| 2026-05-05 14:40 | -33.88959 | 151.14804 | 3418 ft | 269 kts | 290° |
| 2026-05-05 14:40 | -33.88703 | 151.12613 | 3075 ft | 265 kts | 262° |
| 2026-05-05 14:41 | -33.89056 | 151.10448 | 2983 ft | 264 kts | 255° |
| 2026-05-05 14:41 | -33.89524 | 151.08311 | 2979 ft | 265 kts | 253° |
| 2026-05-05 14:41 | -33.89827 | 151.06877 | 2977 ft | 265 kts | 259° |
| 2026-05-05 14:42 | -33.89874 | 151.05412 | 2963 ft | 267 kts | 278° |
| 2026-05-05 14:42 | -33.84201 | 151.00884 | 2984 ft | 265 kts | 352° |
| 2026-05-05 14:42 | -33.82991 | 151.00658 | 2977 ft | 265 kts | 353° |
| 2026-05-05 14:43 | -33.81157 | 151.00325 | 2978 ft | 266 kts | 353° |
| 2026-05-05 14:43 | -33.79371 | 151.00000 | 2957 ft | 249 kts | 353° |
| 2026-05-05 14:43 | -33.77700 | 150.99695 | 2967 ft | 237 kts | 353° |
| 2026-05-05 14:43 | -33.76128 | 150.99417 | 2959 ft | 220 kts | 358° |
| 2026-05-05 14:44 | -33.74685 | 150.99701 | 2929 ft | 199 kts | 34° |
| 2026-05-05 14:44 | -33.73813 | 151.00827 | 3019 ft | 180 kts | 69° |
| 2026-05-05 14:44 | -33.73493 | 151.02193 | 2973 ft | 161 kts | 81° |
| 2026-05-05 14:44 | -33.73304 | 151.03438 | 2921 ft | 143 kts | 83° |
| 2026-05-05 14:45 | -33.73138 | 151.04617 | 2988 ft | 144 kts | 83° |
| 2026-05-05 14:45 | -33.72974 | 151.05794 | 2967 ft | 142 kts | 83° |
| 2026-05-05 14:45 | -33.72808 | 151.06976 | 2972 ft | 142 kts | 83° |
| 2026-05-05 14:45 | -33.72645 | 151.08133 | 2971 ft | 142 kts | 83° |
| 2026-05-05 14:46 | -33.72479 | 151.09319 | 2974 ft | 142 kts | 83° |
| 2026-05-05 14:46 | -33.72499 | 151.10477 | 2959 ft | 141 kts | 115° |
| 2026-05-05 14:46 | -33.73201 | 151.11258 | 2988 ft | 142 kts | 149° |
| 2026-05-05 14:46 | -33.74089 | 151.11813 | 2990 ft | 142 kts | 152° |
| 2026-05-05 14:47 | -33.74995 | 151.12271 | 2973 ft | 142 kts | 158° |
| 2026-05-05 14:47 | -33.75943 | 151.12637 | 2972 ft | 142 kts | 162° |
| 2026-05-05 14:47 | -33.76899 | 151.12941 | 2969 ft | 142 kts | 163° |
| 2026-05-05 14:47 | -33.77872 | 151.13222 | 2962 ft | 142 kts | 164° |
| 2026-05-05 14:48 | -33.78838 | 151.13487 | 2859 ft | 142 kts | 165° |
| 2026-05-05 14:48 | -33.79803 | 151.13745 | 2664 ft | 142 kts | 165° |
| 2026-05-05 14:48 | -33.80772 | 151.14000 | 2470 ft | 141 kts | 166° |
| 2026-05-05 14:48 | -33.81723 | 151.14247 | 2283 ft | 141 kts | 166° |
| 2026-05-05 14:49 | -33.82679 | 151.14496 | 2100 ft | 140 kts | 166° |
| 2026-05-05 14:49 | -33.83638 | 151.14743 | 1908 ft | 140 kts | 166° |
| 2026-05-05 14:49 | -33.84600 | 151.14993 | 1715 ft | 140 kts | 166° |
| 2026-05-05 14:49 | -33.85543 | 151.15237 | 1525 ft | 139 kts | 167° |
| 2026-05-05 14:50 | -33.86489 | 151.15482 | 1338 ft | 139 kts | 167° |
| 2026-05-05 14:50 | -33.87444 | 151.15730 | 1148 ft | 138 kts | 168° |
| 2026-05-05 14:50 | -33.88387 | 151.15976 | 964 ft | 138 kts | 168° |
| 2026-05-05 14:50 | -33.89313 | 151.16223 | 781 ft | 138 kts | 168° |
| 2026-05-05 14:51 | -33.90250 | 151.16467 | 563 ft | 137 kts | 169° |
| 2026-05-05 14:51 | -33.91188 | 151.16708 | 379 ft | 136 kts | 170° |
| 2026-05-05 14:51 | -33.92114 | 151.16946 | 208 ft | 136 kts | 170° |
| 2026-05-05 14:51 | -33.93034 | 151.17184 | 57 ft | 134 kts | 171° |
| 2026-05-05 14:52 | -33.93872 | 151.17403 | 35 ft | 103 kts | 168° |
| 2026-05-05 14:52 | -33.94541 | 151.17564 | 35 ft | 115 kts | 163° |
| 2026-05-05 14:52 | -33.95483 | 151.17819 | 265 ft | 148 kts | 170° |
| 2026-05-05 14:52 | -33.96463 | 151.18080 | 968 ft | 145 kts | 167° |
| 2026-05-05 14:53 | -33.97433 | 151.18324 | 1709 ft | 144 kts | 168° |
| 2026-05-05 14:53 | -33.98436 | 151.18526 | 2234 ft | 153 kts | 169° |
| 2026-05-05 14:53 | -33.99536 | 151.18736 | 2649 ft | 168 kts | 169° |
| 2026-05-05 14:53 | -34.00664 | 151.19179 | 2935 ft | 173 kts | 144° |
| 2026-05-05 14:54 | -34.01322 | 151.20358 | 2961 ft | 174 kts | 103° |
| 2026-05-05 14:54 | -34.01215 | 151.21796 | 2980 ft | 176 kts | 77° |
| 2026-05-05 14:54 | -34.00847 | 151.23209 | 2974 ft | 177 kts | 72° |
| 2026-05-05 14:54 | -34.00169 | 151.24452 | 2955 ft | 181 kts | 39° |
| 2026-05-05 14:55 | -33.98970 | 151.24883 | 2961 ft | 187 kts | 359° |
| 2026-05-05 14:55 | -33.97689 | 151.24585 | 2980 ft | 188 kts | 347° |
| 2026-05-05 14:55 | -33.96429 | 151.24161 | 2975 ft | 188 kts | 345° |
| 2026-05-05 14:55 | -33.95168 | 151.23715 | 2974 ft | 188 kts | 345° |
| 2026-05-05 14:56 | -33.93903 | 151.23268 | 2974 ft | 188 kts | 345° |
| 2026-05-05 14:56 | -33.92657 | 151.22824 | 2974 ft | 188 kts | 345° |
| 2026-05-05 14:56 | -33.91384 | 151.22372 | 2973 ft | 188 kts | 345° |
| 2026-05-05 14:56 | -33.90127 | 151.21922 | 2974 ft | 188 kts | 345° |
| 2026-05-05 14:57 | -33.88869 | 151.21472 | 2978 ft | 188 kts | 345° |
| 2026-05-05 14:57 | -33.87613 | 151.21022 | 2976 ft | 188 kts | 345° |
| 2026-05-05 14:57 | -33.86368 | 151.20577 | 2765 ft | 188 kts | 345° |
| 2026-05-05 14:57 | -33.85117 | 151.20132 | 2517 ft | 187 kts | 345° |
| 2026-05-05 14:58 | -33.83893 | 151.19603 | 2260 ft | 187 kts | 329° |
| 2026-05-05 14:58 | -33.83092 | 151.18405 | 1996 ft | 185 kts | 287° |
| 2026-05-05 14:58 | -33.83076 | 151.16893 | 1768 ft | 182 kts | 258° |
| 2026-05-05 14:58 | -33.83358 | 151.15419 | 1535 ft | 180 kts | 254° |
| 2026-05-05 14:59 | -33.83796 | 151.14035 | 1461 ft | 177 kts | 232° |
| 2026-05-05 14:59 | -33.84782 | 151.13261 | 1377 ft | 173 kts | 190° |
| 2026-05-05 14:59 | -33.85916 | 151.13603 | 1267 ft | 171 kts | 140° |
| 2026-05-05 14:59 | -33.86595 | 151.14674 | 1137 ft | 150 kts | 129° |
| 2026-05-05 15:00 | -33.87333 | 151.15466 | 926 ft | 147 kts | 152° |
| 2026-05-05 15:00 | -33.88394 | 151.15901 | 847 ft | 171 kts | 167° |
| 2026-05-05 15:00 | -33.89525 | 151.16237 | 797 ft | 164 kts | 167° |
| 2026-05-05 15:00 | -33.90597 | 151.16534 | 539 ft | 151 kts | 167° |
| 2026-05-05 15:01 | -33.91588 | 151.16805 | 335 ft | 141 kts | 170° |
| 2026-05-05 15:01 | -33.92554 | 151.17052 | 162 ft | 142 kts | 170° |
| 2026-05-05 15:01 | -33.93505 | 151.17299 | 52 ft | 137 kts | 171° |
| 2026-05-05 15:01 | -33.94356 | 151.17519 | 35 ft | 108 kts | 168° |
| 2026-05-05 15:02 | -33.94925 | 151.17671 | 35 ft | 57 kts | 183° |
| 2026-05-05 15:02 | -33.95100 | 151.17642 | 35 ft | 7 kts | 218° |
| 2026-05-05 15:02 | -33.95136 | 151.17584 | 35 ft | 8 kts | 254° |
| 2026-05-05 15:02 | -33.95114 | 151.17520 | 35 ft | 9 kts | 319° |
| 2026-05-05 15:03 | -33.95052 | 151.17502 | 35 ft | 10 kts | 352° |
| 2026-05-05 15:03 | -33.94961 | 151.17480 | 35 ft | 15 kts | 345° |
| 2026-05-05 15:03 | -33.94837 | 151.17448 | 35 ft | 20 kts | 348° |
| 2026-05-05 15:03 | -33.94683 | 151.17409 | 35 ft | 24 kts | 348° |
| 2026-05-05 15:04 | -33.94503 | 151.17362 | 35 ft | 27 kts | 352° |
| 2026-05-05 15:04 | -33.94329 | 151.17307 | 35 ft | 24 kts | 345° |
| 2026-05-05 15:04 | -33.94156 | 151.17268 | 35 ft | 25 kts | 344° |
| 2026-05-05 15:04 | -33.94006 | 151.17232 | 35 ft | 9 kts | 350° |
| 2026-05-05 15:05 | -33.93933 | 151.17389 | 35 ft | 15 kts | 74° |
| 2026-05-05 15:05 | -33.93899 | 151.17529 | 35 ft | 19 kts | 74° |
| 2026-05-05 15:05 | -33.93821 | 151.17590 | 35 ft | 14 kts | 351° |
| 2026-05-05 15:06 | -33.93719 | 151.17563 | 35 ft | 15 kts | 351° |
| 2026-05-05 15:06 | -33.93626 | 151.17609 | 35 ft | 13 kts | 22° |
| 2026-05-05 15:06 | -33.93535 | 151.17596 | 35 ft | 13 kts | 347° |
| 2026-05-05 15:06 | -33.93439 | 151.17589 | 35 ft | 14 kts | 13° |
| 2026-05-05 15:07 | -33.93339 | 151.17580 | 35 ft | 14 kts | 349° |
| 2026-05-05 15:07 | -33.93296 | 151.17570 | 35 ft | 4 kts | 350° |
| 2026-05-05 15:07 | -33.93273 | 151.17586 | 35 ft | 4 kts | 75° |
| 2026-05-05 15:07 | -33.93268 | 151.17630 | 35 ft | 6 kts | 84° |
| 2026-05-05 15:08 | -33.93264 | 151.17674 | 35 ft | 0 kts | 85° |
| 2026-05-05 15:08 | -33.93264 | 151.17680 | 35 ft | 0 kts | 85° |